EHRD/RTM METAR and TAF weather

Enter ICAO airport designator
Station Type Date Time Source
EHRD METAR 2019/10/16 19:55 UTC NOAA

EHRD 161955Z AUTO 19012KT 160V220 9999 -RA SCT006 BKN008 BKN009 FEW015CB 15/14 Q1005 RERA REDZ TEMPO 6000


Station Type Date Time Source
EHRD Decoded METAR 2019/10/16 19:55 UTC NOAA

Rotterdam Airport Zestienhoven, Netherlands (EHRD) 51-57N 004-27E -4M
Oct 16, 2019 - 03:55 PM EDT / 2019.10.16 1955 UTC
Wind: from the S (190 degrees) at 14 MPH (12 KT) (direction variable):0
Visibility: greater than 7 mile(s):0
Sky conditions: mostly cloudy
Weather: light rain; Cumulonimbus clouds observed
Temperature: 59 F (15 C)
Dew Point: 57 F (14 C)
Relative Humidity: 93%
Pressure (altimeter): 29.68 in. Hg (1005 hPa)
ob: EHRD 161955Z AUTO 19012KT 160V220 9999 -RA SCT006 BKN008 BKN009 FEW015CB 15/14 Q1005 RERA REDZ TEMPO 6000
cycle: 20

Station Type Date Time Source
EHRD TAF 2019/10/16 18:27 UTC NOAA

TAF EHRD 161708Z 1618/1724 20012KT 9999 -RADZ SCT006 BKN014
TEMPO 1618/1701 6000 FEW004 BKN006 PROB30
TEMPO 1618/1624 3500 DZRA
BECMG 1622/1701 24007KT NSW SCT025
BECMG 1709/1712 20010KT
BECMG 1715/1718 14008KT PROB40
TEMPO 1718/1722 22020G30KT 6000 SHRA SCT012 SCT020CB
BECMG 1720/1723 19012KT

Example: see airport list